Time;durP1;ratioP1;P1;durP2;ratioP2;P2;SDS_P1;SDS_P2;PMS_P1;PMS_P2;Temp;Humidity;BMP_temperature;BMP_pressure;BME280_temperature;BME280_humidity;BME280_pressure;Samples;Min_cycle;Max_cycle;Signal;HPM_P1;HPM_P2
2023/01/14 00:01:30;;;;;;;;;;;;;;;-4.08;82.67;100449.31;4966153;28;20400;-66
2023/01/14 00:03:57;;;;;;;;;;;;;;;-4.03;82.41;100451.50;4965968;28;19934;-66
2023/01/14 00:06:24;;;;;;;;;;;;;;;-4.00;82.32;100456.50;4967891;28;19957;-60
2023/01/14 00:08:52;;;;;;;;;;;;;;;-4.03;82.33;100449.63;4964945;28;20592;-61
2023/01/14 00:11:18;;;;;;;;;;;;;;;-4.04;82.45;100439.13;4964243;28;19937;-60
2023/01/14 00:13:43;;;;;;;;;;;;;;;-4.03;82.53;100455.00;4979856;28;19967;-61
2023/01/14 00:16:10;;;;;;;;;;;;;;;-4.00;82.54;100441.28;4970041;28;20294;-61
2023/01/14 00:18:36;;;;;;;;;;;;;;;-3.97;82.64;100447.34;4966857;28;19930;-60
2023/01/14 00:21:04;;;;;;;;;;;;;;;-3.95;82.57;100446.16;4964957;28;19937;-60
2023/01/14 00:23:30;;;;;;;;;;;;;;;-3.94;82.55;100444.34;4967976;28;20352;-60
2023/01/14 00:26:00;;;;;;;;;;;;;;;-3.94;82.56;100442.47;4964179;28;19930;-60
2023/01/14 00:28:26;;;;;;;;;;;;;;;-3.93;82.51;100444.16;4963725;28;20408;-60
2023/01/14 00:30:52;;;;;;;;;;;;;;;-3.94;82.46;100455.84;4964770;28;19930;-60
2023/01/14 00:33:18;;;;;;;;;;;;;;;-3.96;82.56;100455.16;4965723;28;19952;-61
2023/01/14 00:35:51;;;;;;;;;;;;;;;-4.16;82.60;100415.38;4963721;28;20465;-61
2023/01/14 00:38:20;;;;;;;;;;;;;;;-3.94;82.39;100439.81;4958468;28;19954;-60
2023/01/14 00:40:46;;;;;;;;;;;;;;;-3.93;82.79;100435.31;4981388;28;19930;-60
2023/01/14 00:43:11;;;;;;;;;;;;;;;-3.93;82.81;100422.78;4946744;28;20036;-61
2023/01/14 00:45:37;;;;;;;;;;;;;;;-3.93;82.74;100433.47;4966857;28;20039;-62
2023/01/14 00:48:03;;;;;;;;;;;;;;;-3.91;82.74;100428.78;4968841;28;20396;-66
2023/01/14 00:50:29;;;;;;;;;;;;;;;-3.90;82.60;100437.66;4965677;28;20241;-66
2023/01/14 00:52:54;;;;;;;;;;;;;;;-3.90;82.79;100422.47;4965450;28;19930;-66
2023/01/14 00:55:21;;;;;;;;;;;;;;;-3.88;82.79;100424.97;4966900;28;20317;-66
2023/01/14 00:57:47;;;;;;;;;;;;;;;-3.87;82.60;100411.44;4964217;28;19937;-66
2023/01/14 01:00:13;;;;;;;;;;;;;;;-4.06;82.42;100390.34;4965887;28;20321;-66
2023/01/14 01:02:39;;;;;;;;;;;;;;;-3.95;82.70;100432.78;4965783;28;19972;-66
2023/01/14 01:05:05;;;;;;;;;;;;;;;-4.09;82.93;100399.56;4964424;28;19958;-66
2023/01/14 01:07:31;;;;;;;;;;;;;;;-4.09;82.70;100393.34;4966401;28;19977;-67
2023/01/14 01:09:57;;;;;;;;;;;;;;;-3.94;82.87;100420.28;4966590;28;20028;-66
2023/01/14 01:12:24;;;;;;;;;;;;;;;-3.93;82.87;100409.41;4963433;28;20325;-66
2023/01/14 01:14:49;;;;;;;;;;;;;;;-3.94;82.78;100407.75;4964216;28;19929;-66
2023/01/14 01:17:15;;;;;;;;;;;;;;;-3.93;82.50;100413.94;4967771;28;19930;-59
2023/01/14 01:19:41;;;;;;;;;;;;;;;-3.94;82.56;100406.91;4947194;28;20449;-60
2023/01/14 01:22:08;;;;;;;;;;;;;;;-3.92;82.73;100412.94;4966749;28;20045;-60
2023/01/14 01:24:34;;;;;;;;;;;;;;;-3.90;82.65;100409.09;4965393;28;20052;-61
2023/01/14 01:26:59;;;;;;;;;;;;;;;-3.89;82.42;100405.44;4964231;28;19930;-64
2023/01/14 01:29:27;;;;;;;;;;;;;;;-3.91;82.37;100406.59;4947324;28;20039;-66
2023/01/14 01:31:52;;;;;;;;;;;;;;;-3.91;82.35;100404.72;4963078;28;20390;-66
2023/01/14 01:34:18;;;;;;;;;;;;;;;-3.85;82.63;100404.09;4962875;28;20039;-61
2023/01/14 01:36:44;;;;;;;;;;;;;;;-3.86;82.43;100402.44;4963444;28;19930;-62
2023/01/14 01:39:10;;;;;;;;;;;;;;;-3.88;82.39;100412.44;4965626;28;19930;-61
2023/01/14 01:41:36;;;;;;;;;;;;;;;-3.88;82.27;100403.59;4962474;28;19985;-66
2023/01/14 01:44:04;;;;;;;;;;;;;;;-3.91;82.35;100399.41;4961880;28;19936;-66
2023/01/14 01:46:32;;;;;;;;;;;;;;;-3.91;82.37;100399.41;4967621;28;19930;-66
2023/01/14 01:48:59;;;;;;;;;;;;;;;-3.90;82.32;100411.78;4948905;28;19941;-66
2023/01/14 01:51:26;;;;;;;;;;;;;;;-3.88;82.19;100400.91;4948239;28;19968;-66
2023/01/14 01:53:54;;;;;;;;;;;;;;;-3.85;82.18;100401.41;4964199;28;19953;-66
2023/01/14 01:56:22;;;;;;;;;;;;;;;-3.87;82.25;100403.44;4963001;28;20001;-66
2023/01/14 01:58:49;;;;;;;;;;;;;;;-3.86;82.30;100402.44;4962793;28;19934;-71
2023/01/14 02:01:15;;;;;;;;;;;;;;;-3.88;82.09;100401.75;4966384;28;19930;-66
2023/01/14 02:03:43;;;;;;;;;;;;;;;-3.91;82.13;100403.91;4964604;28;19938;-66
2023/01/14 02:06:09;;;;;;;;;;;;;;;-3.93;82.35;100412.09;4982197;28;19936;-66
2023/01/14 02:08:36;;;;;;;;;;;;;;;-3.95;82.23;100406.06;4964358;28;19930;-66
2023/01/14 02:11:19;;;;;;;;;;;;;;;-3.93;82.48;100405.91;4964176;28;20390;-67
2023/01/14 02:13:48;;;;;;;;;;;;;;;-3.92;82.40;100408.41;4957414;28;19937;-66
2023/01/14 02:16:16;;;;;;;;;;;;;;;-3.87;82.33;100413.25;4963842;28;19930;-66
2023/01/14 02:18:50;;;;;;;;;;;;;;;-3.87;81.96;100407.91;4963498;28;19930;-65
2023/01/14 02:21:19;;;;;;;;;;;;;;;-3.90;82.14;100410.94;4963590;28;19936;-65
2023/01/14 02:24:16;;;;;;;;;;;;;;;-3.92;82.28;100413.75;4961433;28;19930;-63
2023/01/14 02:27:06;;;;;;;;;;;;;;;-3.92;82.17;100412.94;4963666;28;19953;-60
2023/01/14 02:29:45;;;;;;;;;;;;;;;-3.91;82.33;100409.25;4939059;28;20354;-61
2023/01/14 02:32:13;;;;;;;;;;;;;;;-3.87;82.35;100406.09;4979901;28;20408;-60
2023/01/14 02:34:44;;;;;;;;;;;;;;;-3.83;82.35;100414.59;4944658;29;20396;-60
2023/01/14 02:37:12;;;;;;;;;;;;;;;-3.87;82.26;100426.63;4979214;28;19929;-59
2023/01/14 02:39:41;;;;;;;;;;;;;;;-3.93;82.48;100420.09;4962822;28;19934;-57
2023/01/14 02:45:00;;;;;;;;;;;;;;;-4.01;83.09;100428.13;4954727;28;19930;-61
2023/01/14 02:47:30;;;;;;;;;;;;;;;-4.01;83.14;100420.91;4962131;28;19969;-60
2023/01/14 02:49:58;;;;;;;;;;;;;;;-4.01;83.39;100428.94;4961276;28;20374;-60
2023/01/14 02:52:25;;;;;;;;;;;;;;;-4.01;83.43;100420.09;4963506;28;20041;-59
2023/01/14 02:54:52;;;;;;;;;;;;;;;-4.01;83.52;100426.25;4961974;28;20305;-62
2023/01/14 02:57:28;;;;;;;;;;;;;;;-4.00;83.63;100413.75;4970597;28;19992;-62
2023/01/14 03:00:00;;;;;;;;;;;;;;;-3.98;83.36;100409.09;4962433;28;19934;-61
2023/01/14 03:02:45;;;;;;;;;;;;;;;-3.95;83.66;100413.28;4958320;28;19941;-66
2023/01/14 03:05:18;;;;;;;;;;;;;;;-3.96;83.51;100406.25;4964545;28;19930;-60
2023/01/14 03:07:50;;;;;;;;;;;;;;;-3.97;83.38;100412.59;4963494;28;20298;-61
2023/01/14 03:10:22;;;;;;;;;;;;;;;-3.99;83.35;100418.09;4962578;28;19934;-58
2023/01/14 03:12:48;;;;;;;;;;;;;;;-4.05;83.29;100422.25;4962911;28;19985;-60
2023/01/14 03:15:20;;;;;;;;;;;;;;;-4.10;83.16;100416.56;4980135;28;20029;-61
2023/01/14 03:17:50;;;;;;;;;;;;;;;-4.13;83.41;100408.91;4977358;28;20029;-60
2023/01/14 03:20:18;;;;;;;;;;;;;;;-4.11;83.62;100401.56;4963364;28;19944;-61
2023/01/14 03:22:45;;;;;;;;;;;;;;;-4.07;83.69;100397.53;4965816;28;20020;-61
2023/01/14 03:25:13;;;;;;;;;;;;;;;-4.05;83.28;100405.41;4948867;28;19930;-60
2023/01/14 03:27:41;;;;;;;;;;;;;;;-4.10;83.16;100407.72;4966202;28;20014;-61
2023/01/14 03:30:08;;;;;;;;;;;;;;;-4.15;83.22;100405.53;4969313;28;19930;-60
2023/01/14 03:32:38;;;;;;;;;;;;;;;-4.13;83.26;100408.91;4985980;28;20422;-61
2023/01/14 03:35:07;;;;;;;;;;;;;;;-4.14;83.05;100405.38;4965874;28;20005;-60
2023/01/14 03:37:32;;;;;;;;;;;;;;;-4.16;83.02;100398.50;4981407;28;19962;-60
2023/01/14 03:40:01;;;;;;;;;;;;;;;-4.12;83.24;100397.22;4967665;28;19976;-61
2023/01/14 03:42:29;;;;;;;;;;;;;;;-4.10;82.94;100402.38;4974487;28;19930;-60
2023/01/14 03:45:00;;;;;;;;;;;;;;;-4.09;83.02;100407.56;4966997;28;19937;-59
2023/01/14 03:47:27;;;;;;;;;;;;;;;-4.11;82.59;100403.38;4966935;28;20401;-58
2023/01/14 03:49:53;;;;;;;;;;;;;;;-4.10;82.63;100407.72;4965609;28;20017;-59
2023/01/14 03:52:25;;;;;;;;;;;;;;;-4.11;82.86;100398.88;4964862;28;20068;-61
2023/01/14 03:54:56;;;;;;;;;;;;;;;-4.11;82.76;100398.03;4967467;28;19972;-60
2023/01/14 03:57:25;;;;;;;;;;;;;;;-4.13;82.79;100393.69;4947821;28;19942;-61
2023/01/14 03:59:54;;;;;;;;;;;;;;;-4.15;83.07;100386.81;4967062;28;19981;-60
2023/01/14 04:02:22;;;;;;;;;;;;;;;-4.29;83.24;100366.94;4980444;28;19930;-61
2023/01/14 04:04:48;;;;;;;;;;;;;;;-4.14;83.22;100389.34;4947629;28;19937;-59
2023/01/14 04:07:14;;;;;;;;;;;;;;;-4.13;83.27;100398.22;4981457;28;19930;-60
2023/01/14 04:09:42;;;;;;;;;;;;;;;-4.14;83.38;100386.69;4966257;28;19930;-60
2023/01/14 04:12:09;;;;;;;;;;;;;;;-4.12;83.35;100399.88;4964745;28;19949;-60
2023/01/14 04:17:19;;;;;;;;;;;;;;;-4.10;83.53;100399.69;4965729;28;19935;-66
2023/01/14 04:19:44;;;;;;;;;;;;;;;-4.09;83.19;100406.72;4966445;28;19930;-66
2023/01/14 04:22:10;;;;;;;;;;;;;;;-4.17;83.18;100397.69;4964759;28;19940;-66
2023/01/14 04:24:36;;;;;;;;;;;;;;;-4.15;83.25;100397.50;4964006;28;20045;-70
2023/01/14 04:27:03;;;;;;;;;;;;;;;-4.14;83.22;100408.03;4963911;28;19934;-66
2023/01/14 04:29:28;;;;;;;;;;;;;;;-4.11;83.09;100412.25;4967425;28;19934;-66
2023/01/14 04:31:54;;;;;;;;;;;;;;;-4.10;83.08;100418.41;4966375;28;19981;-67
2023/01/14 04:34:20;;;;;;;;;;;;;;;-4.10;82.98;100413.91;4967387;28;19930;-66
2023/01/14 04:36:46;;;;;;;;;;;;;;;-4.14;82.79;100412.53;4965442;28;19949;-66
2023/01/14 04:39:11;;;;;;;;;;;;;;;-4.21;82.74;100416.88;4965896;28;19957;-66
2023/01/14 04:44:23;;;;;;;;;;;;;;;-4.19;82.94;100409.53;4966056;28;19937;-66
2023/01/14 04:46:48;;;;;;;;;;;;;;;-4.20;82.89;100418.53;4965210;28;20516;-66
2023/01/14 04:49:14;;;;;;;;;;;;;;;-4.20;82.94;100415.88;4965966;28;19934;-66
2023/01/14 04:51:40;;;;;;;;;;;;;;;-4.17;82.98;100412.88;4968311;28;19930;-66
2023/01/14 04:54:05;;;;;;;;;;;;;;;-4.14;83.14;100421.41;4965600;28;20477;-68
2023/01/14 04:56:31;;;;;;;;;;;;;;;-4.10;82.66;100418.41;4966840;28;20001;-66
2023/01/14 04:59:02;;;;;;;;;;;;;;;-4.10;82.57;100429.94;4966261;28;19934;-66
2023/01/14 05:01:29;;;;;;;;;;;;;;;-4.17;82.58;100424.41;4960674;28;20144;-66
2023/01/14 05:03:58;;;;;;;;;;;;;;;-4.18;82.81;100411.19;4957365;28;20299;-66
2023/01/14 05:06:24;;;;;;;;;;;;;;;-4.32;82.90;100408.16;4957260;28;20311;-60
2023/01/14 05:08:50;;;;;;;;;;;;;;;-4.21;82.59;100428.41;4956703;28;20020;-61
2023/01/14 05:11:16;;;;;;;;;;;;;;;-4.26;82.99;100425.38;4954564;28;20441;-61
2023/01/14 05:13:41;;;;;;;;;;;;;;;-4.27;83.24;100415.69;4955012;28;19930;-61
2023/01/14 05:16:07;;;;;;;;;;;;;;;-4.26;83.44;100422.69;4953451;28;20032;-61
2023/01/14 05:18:35;;;;;;;;;;;;;;;-4.21;83.23;100422.22;4962273;28;20004;-59
2023/01/14 05:21:01;;;;;;;;;;;;;;;-4.21;83.02;100423.06;4968444;28;19930;-64
2023/01/14 05:23:26;;;;;;;;;;;;;;;-4.17;83.18;100434.25;4963715;28;19941;-61
2023/01/14 05:25:52;;;;;;;;;;;;;;;-4.16;83.15;100419.88;4979673;28;19930;-61
2023/01/14 05:28:19;;;;;;;;;;;;;;;-4.13;82.81;100427.59;4966926;28;20349;-60
2023/01/14 05:30:44;;;;;;;;;;;;;;;-4.13;83.04;100430.25;4967493;28;19929;-65
2023/01/14 05:33:10;;;;;;;;;;;;;;;-4.15;82.71;100413.53;4965904;28;19988;-66
2023/01/14 05:35:37;;;;;;;;;;;;;;;-4.18;82.91;100422.72;4966240;28;19977;-67
2023/01/14 05:38:04;;;;;;;;;;;;;;;-4.20;83.17;100429.22;4955521;28;19936;-62
2023/01/14 05:40:29;;;;;;;;;;;;;;;-4.20;83.01;100440.75;4963878;28;19930;-60
2023/01/14 05:45:49;;;;;;;;;;;;;;;-4.19;83.32;100429.06;4954176;28;19934;-61
2023/01/14 05:48:15;;;;;;;;;;;;;;;-4.16;83.31;100436.75;4961860;28;19930;-60
2023/01/14 05:50:43;;;;;;;;;;;;;;;-4.15;83.17;100435.75;4965628;28;19989;-59
2023/01/14 05:53:09;;;;;;;;;;;;;;;-4.16;83.14;100436.75;4964836;28;19984;-61
2023/01/14 05:55:35;;;;;;;;;;;;;;;-4.17;83.24;100434.25;4961805;28;19934;-61
2023/01/14 05:58:01;;;;;;;;;;;;;;;-4.17;83.20;100435.09;4962930;28;19930;-61
2023/01/14 06:08:42;;;;;;;;;;;;;;;-4.17;83.20;100435.09;4960065;28;20052;-67
2023/01/14 06:11:08;;;;;;;;;;;;;;;-4.14;83.27;100440.09;4963233;28;20032;-66
2023/01/14 06:13:34;;;;;;;;;;;;;;;-4.16;83.15;100447.44;4963522;28;19973;-67
2023/01/14 06:16:02;;;;;;;;;;;;;;;-4.18;83.30;100444.09;4961362;28;19930;-66
2023/01/14 06:18:37;;;;;;;;;;;;;;;-4.18;83.29;100438.75;4962955;28;20045;-66
2023/01/14 06:21:07;;;;;;;;;;;;;;;-4.16;83.34;100443.94;4964992;28;19934;-69
2023/01/14 06:23:33;;;;;;;;;;;;;;;-4.11;83.34;100436.28;4980092;28;20238;-67
2023/01/14 06:25:59;;;;;;;;;;;;;;;-4.08;83.12;100440.44;4965535;28;20028;-66
2023/01/14 06:28:25;;;;;;;;;;;;;;;-4.08;83.19;100437.78;4962878;28;20060;-61
2023/01/14 06:30:50;;;;;;;;;;;;;;;-4.12;83.24;100450.63;4965766;28;19930;-61
2023/01/14 06:33:16;;;;;;;;;;;;;;;-4.08;83.09;100446.63;4963275;28;20484;-63
2023/01/14 06:35:43;;;;;;;;;;;;;;;-4.05;83.14;100451.66;4965026;28;19930;-60
2023/01/14 06:38:10;;;;;;;;;;;;;;;-4.02;83.18;100456.66;4963611;28;20469;-62
2023/01/14 06:40:37;;;;;;;;;;;;;;;-4.03;82.95;100456.84;4964535;28;20356;-60
2023/01/14 06:43:05;;;;;;;;;;;;;;;-4.08;82.83;100440.44;4946430;28;19930;-60
2023/01/14 06:45:31;;;;;;;;;;;;;;;-4.07;83.15;100469.69;4949869;28;19930;-62
2023/01/14 06:47:57;;;;;;;;;;;;;;;-4.03;83.01;100449.63;4963426;28;20524;-60
2023/01/14 06:50:23;;;;;;;;;;;;;;;-4.01;83.08;100460.19;4962750;28;19937;-62
2023/01/14 06:52:49;;;;;;;;;;;;;;;-4.02;82.88;100459.31;4961670;28;20433;-60
2023/01/14 06:55:16;;;;;;;;;;;;;;;-4.19;82.79;100442.44;4965088;28;19930;-67
2023/01/14 06:57:42;;;;;;;;;;;;;;;-4.05;83.04;100458.84;4963656;28;20357;-67
2023/01/14 07:00:08;;;;;;;;;;;;;;;-3.99;83.00;100463.53;4967349;28;19930;-67
2023/01/14 07:02:34;;;;;;;;;;;;;;;-4.02;82.81;100456.66;4967047;28;19930;-67
2023/01/14 07:05:00;;;;;;;;;;;;;;;-4.01;83.01;100463.66;4979848;28;19936;-67
2023/01/14 07:07:26;;;;;;;;;;;;;;;-4.02;82.97;100456.66;4967351;28;19929;-67
2023/01/14 07:09:51;;;;;;;;;;;;;;;-4.01;82.80;100468.19;4966856;28;19930;-66
2023/01/14 07:12:19;;;;;;;;;;;;;;;-4.03;83.06;100457.66;4963324;28;19930;-67
2023/01/14 07:14:44;;;;;;;;;;;;;;;-4.00;82.95;100465.34;4970297;28;19961;-67
2023/01/14 07:17:10;;;;;;;;;;;;;;;-3.97;82.90;100464.19;4970077;28;19965;-66
2023/01/14 07:19:36;;;;;;;;;;;;;;;-3.92;82.74;100474.41;4966330;28;19982;-67
2023/01/14 07:22:02;;;;;;;;;;;;;;;-3.93;82.52;100483.41;4980153;28;19930;-67
2023/01/14 07:24:27;;;;;;;;;;;;;;;-3.94;82.76;100479.88;4969131;28;19929;-66
2023/01/14 07:26:53;;;;;;;;;;;;;;;-3.98;82.84;100489.25;4966868;28;20108;-66
2023/01/14 07:29:21;;;;;;;;;;;;;;;-3.97;82.91;100482.06;4950896;28;20326;-66
2023/01/14 07:31:46;;;;;;;;;;;;;;;-3.96;82.95;100495.25;4979315;28;20317;-67
2023/01/14 07:34:12;;;;;;;;;;;;;;;-3.97;82.75;100485.56;4968709;28;19930;-67
2023/01/14 07:36:38;;;;;;;;;;;;;;;-3.97;83.00;100474.88;4962808;28;20021;-67
2023/01/14 07:39:04;;;;;;;;;;;;;;;-4.00;82.88;100481.38;4967712;28;19930;-67
2023/01/14 07:41:30;;;;;;;;;;;;;;;-3.96;83.15;100489.91;4982158;28;19930;-67
2023/01/14 07:43:55;;;;;;;;;;;;;;;-3.91;83.07;100473.41;4966294;28;19977;-62
2023/01/14 07:46:23;;;;;;;;;;;;;;;-3.89;82.95;100487.44;4965460;28;19930;-61
2023/01/14 07:48:48;;;;;;;;;;;;;;;-3.86;82.80;100473.72;4965443;28;19930;-66
2023/01/14 07:51:20;;;;;;;;;;;;;;;-3.79;82.73;100484.59;4966601;28;19941;-66
2023/01/14 07:53:46;;;;;;;;;;;;;;;-3.79;82.45;100487.28;4963072;28;19930;-66
2023/01/14 07:56:12;;;;;;;;;;;;;;;-3.80;82.47;100481.13;4966107;28;20040;-67
2023/01/14 07:58:38;;;;;;;;;;;;;;;-3.76;82.57;100494.97;4965425;28;19930;-66
2023/01/14 08:01:07;;;;;;;;;;;;;;;-3.75;82.42;100480.59;4966375;28;20154;-67
2023/01/14 08:03:35;;;;;;;;;;;;;;;-3.77;82.31;100483.44;4968879;28;20321;-66
2023/01/14 08:06:01;;;;;;;;;;;;;;;-3.77;82.37;100480.78;4964638;28;19985;-66
2023/01/14 08:08:27;;;;;;;;;;;;;;;-3.77;82.43;100479.94;4966442;28;19930;-67
2023/01/14 08:10:53;;;;;;;;;;;;;;;-3.75;82.45;100477.91;4966010;28;19936;-66
2023/01/14 08:13:19;;;;;;;;;;;;;;;-3.77;82.49;100483.44;4979799;28;19934;-66
2023/01/14 08:15:45;;;;;;;;;;;;;;;-3.80;82.42;100490.94;4967296;28;19934;-67
2023/01/14 08:18:10;;;;;;;;;;;;;;;-3.79;82.63;100493.47;4981436;28;19930;-61
2023/01/14 08:20:38;;;;;;;;;;;;;;;-3.76;82.74;100478.94;4967082;28;19937;-62
2023/01/14 08:23:03;;;;;;;;;;;;;;;-3.75;82.49;100483.28;4966643;28;19933;-61
2023/01/14 08:25:29;;;;;;;;;;;;;;;-3.74;82.43;100485.78;4964227;28;19934;-61
2023/01/14 08:27:55;;;;;;;;;;;;;;;-3.73;82.18;100502.69;4964998;28;19930;-60
2023/01/14 08:30:21;;;;;;;;;;;;;;;-3.73;82.30;100471.44;4965389;28;20168;-62
2023/01/14 08:32:47;;;;;;;;;;;;;;;-3.70;82.27;100472.94;4964339;28;19930;-62
2023/01/14 08:35:13;;;;;;;;;;;;;;;-3.68;82.27;100483.44;4967696;28;20394;-62
2023/01/14 08:37:41;;;;;;;;;;;;;;;-3.64;82.35;100484.81;4965231;28;20132;-61
2023/01/14 08:40:07;;;;;;;;;;;;;;;-3.64;82.22;100471.44;4967771;28;19930;-68
2023/01/14 08:42:33;;;;;;;;;;;;;;;-3.65;82.20;100465.25;4966502;28;19930;-66
2023/01/14 08:44:59;;;;;;;;;;;;;;;-3.63;82.00;100478.47;4621732;28;9999971;-67
2023/01/14 08:47:24;;;;;;;;;;;;;;;-3.67;82.27;100485.13;4958607;28;19930;-66
2023/01/14 08:49:50;;;;;;;;;;;;;;;-3.67;82.13;100467.25;4961202;28;20067;-66
2023/01/14 08:52:18;;;;;;;;;;;;;;;-3.68;82.42;100494.16;4961964;28;19930;-66
2023/01/14 08:54:45;;;;;;;;;;;;;;;-3.65;82.27;100481.28;4960407;28;19996;-66
2023/01/14 08:57:11;;;;;;;;;;;;;;;-3.63;82.25;100470.44;4960678;28;19938;-66
2023/01/14 08:59:38;;;;;;;;;;;;;;;-3.65;82.27;100489.31;4961709;28;19930;-66
2023/01/14 09:02:04;;;;;;;;;;;;;;;-3.65;82.36;100459.09;4964085;28;20339;-66
2023/01/14 09:04:30;;;;;;;;;;;;;;;-3.61;82.36;100468.44;4964129;28;19989;-66
2023/01/14 09:17:55;;;;;;;;;;;;;;;-3.52;82.44;100472.78;4957731;28;19984;-67
2023/01/14 09:20:30;;;;;;;;;;;;;;;-3.47;82.56;100477.63;4963911;28;20432;-66
2023/01/14 09:22:56;;;;;;;;;;;;;;;-3.51;82.27;100469.13;4958287;28;20310;-66
2023/01/14 09:25:22;;;;;;;;;;;;;;;-3.55;82.41;100473.13;4965893;28;20377;-66
2023/01/14 09:27:50;;;;;;;;;;;;;;;-3.56;82.74;100463.44;4931728;28;20401;-66
2023/01/14 09:30:16;;;;;;;;;;;;;;;-3.51;83.06;100462.94;4966872;28;19930;-66
2023/01/14 09:32:41;;;;;;;;;;;;;;;-3.50;82.56;100475.28;4966831;28;19937;-66
2023/01/14 09:35:07;;;;;;;;;;;;;;;-3.56;82.88;100466.94;4969063;28;19930;-66
2023/01/14 09:37:33;;;;;;;;;;;;;;;-3.52;82.96;100467.44;4984753;28;20269;-66
2023/01/14 09:39:59;;;;;;;;;;;;;;;-3.50;83.10;100477.97;4978997;28;19962;-61
2023/01/14 09:42:27;;;;;;;;;;;;;;;-3.49;83.09;100463.59;4987138;28;19972;-67
2023/01/14 09:45:00;;;;;;;;;;;;;;;-3.44;82.96;100467.44;4972789;28;20025;-66
2023/01/14 09:47:27;;;;;;;;;;;;;;;-3.38;82.63;100465.94;4973379;28;19930;-62
2023/01/14 09:49:53;;;;;;;;;;;;;;;-3.37;82.38;100481.00;4970574;28;19999;-60
2023/01/14 09:52:44;;;;;;;;;;;;;;;-3.44;82.65;100474.63;4974678;28;20388;-61
2023/01/14 09:55:14;;;;;;;;;;;;;;;-3.40;82.80;100464.44;4973569;28;19934;-61
2023/01/14 09:57:45;;;;;;;;;;;;;;;-3.36;82.72;100466.63;4976149;28;19938;-66
2023/01/14 10:00:24;;;;;;;;;;;;;;;-3.33;82.56;100479.66;4974589;28;19930;-66
2023/01/14 10:02:54;;;;;;;;;;;;;;;-3.35;82.66;100478.16;4969010;28;19949;-67
2023/01/14 10:05:21;;;;;;;;;;;;;;;-3.35;82.72;100470.97;4971070;28;19937;-67
2023/01/14 10:07:47;;;;;;;;;;;;;;;-3.52;82.85;100439.88;4968978;28;19992;-66
2023/01/14 10:10:23;;;;;;;;;;;;;;;-3.40;83.17;100461.75;4966318;28;20041;-66
2023/01/14 10:12:51;;;;;;;;;;;;;;;-3.46;83.40;100458.75;4961254;28;19985;-60
2023/01/14 10:15:27;;;;;;;;;;;;;;;-3.47;83.94;100464.25;4964803;28;19930;-61
2023/01/14 10:17:56;;;;;;;;;;;;;;;-3.47;83.96;100451.75;4979266;28;19973;-61
2023/01/14 10:20:26;;;;;;;;;;;;;;;-3.50;84.45;100453.91;4949071;28;19930;-66
2023/01/14 10:22:57;;;;;;;;;;;;;;;-3.51;84.50;100452.25;4964919;28;19977;-66
2023/01/14 10:25:23;;;;;;;;;;;;;;;-3.50;84.62;100449.41;4966219;28;19980;-66
2023/01/14 10:27:51;;;;;;;;;;;;;;;-3.48;84.65;100455.41;4981333;28;19934;-66
2023/01/14 10:30:18;;;;;;;;;;;;;;;-3.45;84.67;100472.94;4960933;28;19981;-66
2023/01/14 10:32:47;;;;;;;;;;;;;;;-3.45;84.70;100451.56;4964303;28;19930;-67
2023/01/14 10:35:14;;;;;;;;;;;;;;;-3.44;84.91;100448.72;4965059;28;19936;-66
2023/01/14 10:37:40;;;;;;;;;;;;;;;-3.38;84.75;100465.94;4963119;28;19989;-66
2023/01/14 10:40:11;;;;;;;;;;;;;;;-3.37;84.52;100450.72;4964460;28;19934;-63
2023/01/14 10:42:37;;;;;;;;;;;;;;;-3.34;84.73;100437.03;4982993;28;19937;-68
2023/01/14 10:45:04;;;;;;;;;;;;;;;-3.33;84.66;100441.38;4965041;28;19934;-66
2023/01/14 10:47:33;;;;;;;;;;;;;;;-3.31;84.80;100444.72;4980624;28;20029;-66
2023/01/14 10:50:02;;;;;;;;;;;;;;;-3.32;84.55;100441.19;4964626;28;19936;-62
2023/01/14 10:52:29;;;;;;;;;;;;;;;-3.36;84.84;100431.84;4966544;28;19937;-62
2023/01/14 10:54:56;;;;;;;;;;;;;;;-3.34;84.64;100437.88;4962372;28;20235;-63
2023/01/14 10:57:23;;;;;;;;;;;;;;;-3.40;84.81;100435.88;4962954;28;20522;-62
2023/01/14 10:59:50;;;;;;;;;;;;;;;-3.40;85.07;100440.38;4962637;28;19930;-60
2023/01/14 11:02:28;;;;;;;;;;;;;;;-3.45;85.17;100432.84;4963663;28;19942;-61
2023/01/14 11:04:54;;;;;;;;;;;;;;;-3.48;85.33;100442.06;4963003;28;19930;-61
2023/01/14 11:07:24;;;;;;;;;;;;;;;-3.49;85.50;100432.38;4962761;28;19938;-60
2023/01/14 11:09:50;;;;;;;;;;;;;;;-3.54;85.95;100431.19;4962711;28;19930;-62
2023/01/14 11:12:24;;;;;;;;;;;;;;;-3.52;86.15;100434.53;4962571;28;20049;-62
2023/01/14 11:14:51;;;;;;;;;;;;;;;-3.47;86.49;100421.47;4962947;28;20452;-62
2023/01/14 11:17:21;;;;;;;;;;;;;;;-3.44;86.45;100431.84;4966577;28;19952;-62
2023/01/14 11:19:47;;;;;;;;;;;;;;;-3.43;86.65;100420.97;4963422;28;19979;-63
2023/01/14 11:22:13;;;;;;;;;;;;;;;-3.46;86.69;100424.00;4945677;28;20052;-63
2023/01/14 11:24:43;;;;;;;;;;;;;;;-3.47;87.10;100427.69;4964312;28;19969;-63
2023/01/14 11:27:13;;;;;;;;;;;;;;;-3.43;87.34;100425.50;4980720;28;19936;-66
2023/01/14 11:29:42;;;;;;;;;;;;;;;-3.39;87.33;100439.38;4959991;28;19930;-66
2023/01/14 11:32:10;;;;;;;;;;;;;;;-3.40;87.11;100437.69;4945443;28;19952;-66
2023/01/14 11:34:38;;;;;;;;;;;;;;;-3.50;87.17;100432.50;4964016;28;19930;-66
2023/01/14 11:37:07;;;;;;;;;;;;;;;-3.53;87.50;100431.00;4962321;28;20004;-66
2023/01/14 11:39:34;;;;;;;;;;;;;;;-3.54;87.63;100426.66;4979393;28;19937;-66
2023/01/14 11:42:20;;;;;;;;;;;;;;;-3.52;87.45;100429.19;4967558;28;19977;-64
2023/01/14 11:44:55;;;;;;;;;;;;;;;-3.53;87.60;100441.69;4962110;28;19929;-62
2023/01/14 11:47:22;;;;;;;;;;;;;;;-3.51;87.57;100433.53;4970126;28;20413;-62
2023/01/14 11:49:49;;;;;;;;;;;;;;;-3.51;87.56;100433.53;4969867;28;19937;-62
2023/01/14 11:52:19;;;;;;;;;;;;;;;-3.43;87.46;100428.19;4968688;28;19985;-63
2023/01/14 11:54:47;;;;;;;;;;;;;;;-3.43;87.24;100430.88;4950863;28;20028;-61
2023/01/14 11:57:16;;;;;;;;;;;;;;;-3.41;87.49;100434.19;4963885;28;19953;-63
2023/01/14 11:59:42;;;;;;;;;;;;;;;-3.41;87.48;100434.19;4967392;28;19945;-66
2023/01/14 12:02:12;;;;;;;;;;;;;;;-3.38;87.40;100454.41;4967474;28;20045;-62
2023/01/14 12:04:40;;;;;;;;;;;;;;;-3.39;87.35;100434.00;4969276;28;19934;-66
2023/01/14 12:07:07;;;;;;;;;;;;;;;-3.40;86.99;100440.38;4981212;28;20283;-65
2023/01/14 12:09:41;;;;;;;;;;;;;;;-3.39;87.16;100442.03;4968312;28;20389;-61
2023/01/14 12:12:11;;;;;;;;;;;;;;;-3.39;86.88;100437.53;4981077;28;19930;-61
2023/01/14 12:17:27;;;;;;;;;;;;;;;-3.42;86.57;100443.22;4966546;28;19937;-65
2023/01/14 12:19:58;;;;;;;;;;;;;;;-3.40;86.56;100445.72;4969908;28;19953;-65
2023/01/14 12:22:26;;;;;;;;;;;;;;;-3.39;86.46;100434.88;4967315;28;20409;-62
2023/01/14 12:24:57;;;;;;;;;;;;;;;-3.37;86.20;100443.56;4966741;28;19930;-62
2023/01/14 12:27:42;;;;;;;;;;;;;;;-3.37;86.01;100448.06;4966009;28;20385;-65
2023/01/14 12:30:16;;;;;;;;;;;;;;;-3.36;85.86;100445.22;4963016;28;21283;-61
2023/01/14 12:32:45;;;;;;;;;;;;;;;-3.32;85.58;100448.41;4964311;28;19949;-63
2023/01/14 12:35:13;;;;;;;;;;;;;;;-3.31;85.30;100439.38;4966884;28;19941;-61
2023/01/14 12:37:46;;;;;;;;;;;;;;;-3.30;85.37;100449.06;4968798;28;19930;-60
2023/01/14 12:45:50;;;;;;;;;;;;;;;-3.29;84.56;100458.75;4961500;28;20037;-65
2023/01/14 12:48:18;;;;;;;;;;;;;;;-3.28;84.57;100463.09;4964612;28;20009;-66
2023/01/14 12:50:48;;;;;;;;;;;;;;;-3.29;84.29;100464.94;4963626;28;19965;-66
2023/01/14 12:53:16;;;;;;;;;;;;;;;-3.29;84.33;100464.94;4978518;28;19930;-66
2023/01/14 12:55:45;;;;;;;;;;;;;;;-3.33;84.14;100471.63;4981056;28;19941;-66
2023/01/14 12:58:16;;;;;;;;;;;;;;;-3.36;84.46;100471.97;4967061;28;19933;-65
2023/01/14 13:00:48;;;;;;;;;;;;;;;-3.32;84.37;100473.31;4967889;28;20039;-66
2023/01/14 13:03:18;;;;;;;;;;;;;;;-3.34;84.41;100474.50;4965065;28;19934;-63
2023/01/14 13:05:44;;;;;;;;;;;;;;;-3.33;84.36;100455.59;4963549;28;19930;-63
2023/01/14 13:08:18;;;;;;;;;;;;;;;-3.32;84.46;100472.47;4966579;28;19940;-66
2023/01/14 13:10:45;;;;;;;;;;;;;;;-3.35;84.48;100462.13;4966288;28;19988;-66
2023/01/14 13:13:19;;;;;;;;;;;;;;;-3.38;84.67;100465.94;4967630;28;19934;-65
2023/01/14 13:15:45;;;;;;;;;;;;;;;-3.38;84.82;100465.09;4964448;28;19937;-65
2023/01/14 13:18:25;;;;;;;;;;;;;;;-3.31;85.13;100464.28;4961861;28;20020;-67